Time;durP1;ratioP1;P1;durP2;ratioP2;P2;SDS_P1;SDS_P2;PMS_P1;PMS_P2;Temp;Humidity;BMP_temperature;BMP_pressure;BME280_temperature;BME280_humidity;BME280_pressure;Samples;Min_cycle;Max_cycle;Signal;HPM_P1;HPM_P2
2021/04/09 12:58:43;;;;;;;6.25;2.13;;;;;;;;;;5070525;28;20320;-73
2021/04/09 13:01:09;;;;;;;3.78;1.98;;;;;;;;;;5065280;28;20025;-73
2021/04/09 13:03:35;;;;;;;6.75;2.33;;;;;;;;;;5043451;28;20693;-73
2021/04/09 13:06:01;;;;;;;6.38;2.03;;;;;;;;;;5061947;28;20369;-73
2021/04/09 13:08:27;;;;;;;6.30;2.15;;;20.00;52.90;;;;;;5060615;28;20476;-72
2021/04/09 13:10:53;;;;;;;5.80;1.70;;;19.70;51.00;;;;;;5059774;28;20081;-77
2021/04/09 13:13:18;;;;;;;5.20;1.80;;;19.20;51.60;;;;;;5061338;28;20031;-75
2021/04/09 13:15:44;;;;;;;7.00;1.75;;;19.50;52.30;;;;;;5060877;28;20115;-73
2021/04/09 13:18:10;;;;;;;4.82;1.60;;;19.40;51.90;;;;;;5060608;28;20036;-75
2021/04/09 13:20:35;;;;;;;5.28;1.55;;;18.70;52.10;;;;;;5060503;28;20090;-72
2021/04/09 13:23:01;;;;;;;6.93;1.83;;;18.50;53.50;;;;;;5060291;28;20033;-73
2021/04/09 13:25:26;;;;;;;7.93;2.00;;;18.20;53.70;;;;;;5061399;28;20029;-73
2021/04/09 13:27:52;;;;;;;3.00;1.63;;;18.20;53.60;;;;;;5059824;28;20029;-76
2021/04/09 13:30:19;;;;;;;3.10;1.67;;;18.00;54.10;;;;;;5045387;28;20051;-75
2021/04/09 13:32:44;;;;;;;6.47;2.03;;;18.20;52.40;;;;;;5064768;28;20096;-76
2021/04/09 13:35:10;;;;;;;7.68;2.33;;;18.70;53.00;;;;;;5064825;28;20104;-75
2021/04/09 13:37:36;;;;;;;3.53;1.80;;;18.10;53.70;;;;;;5064197;28;20422;-75
2021/04/09 13:40:02;;;;;;;6.45;1.95;;;17.90;54.50;;;;;;5063092;28;20025;-75
2021/04/09 13:42:28;;;;;;;4.70;1.90;;;17.90;55.00;;;;;;5064598;28;20046;-75
2021/04/09 13:44:53;;;;;;;3.78;1.42;;;17.60;54.80;;;;;;5064481;28;20121;-73
2021/04/09 13:47:19;;;;;;;6.75;1.90;;;17.40;55.20;;;;;;5065448;28;20036;-73
2021/04/09 13:49:45;;;;;;;6.10;1.75;;;17.50;55.30;;;;;;5040841;27;20032;-74
2021/04/09 13:52:10;;;;;;;6.75;1.70;;;17.30;54.30;;;;;;5064584;28;20043;-72
2021/04/09 13:54:36;;;;;;;8.27;1.60;;;17.60;54.50;;;;;;5064357;28;20029;-74
2021/04/09 13:57:02;;;;;;;5.80;1.67;;;17.60;55.00;;;;;;5064186;28;20116;-73
2021/04/09 13:59:28;;;;;;;7.10;1.95;;;17.70;55.00;;;;;;5063203;28;20384;-73
2021/04/09 14:01:54;;;;;;;6.00;2.20;;;18.30;55.40;;;;;;5062082;28;20108;-73
2021/04/09 14:04:19;;;;;;;7.85;1.75;;;17.80;55.20;;;;;;5062939;28;20578;-74
2021/04/09 14:06:45;;;;;;;4.15;1.60;;;17.70;54.80;;;;;;5062961;28;20072;-74
2021/04/09 14:09:11;;;;;;;7.78;1.75;;;17.70;55.20;;;;;;5055924;28;20028;-74
2021/04/09 14:11:37;;;;;;;4.32;1.55;;;17.70;54.70;;;;;;5050521;28;20036;-73
2021/04/09 14:14:03;;;;;;;8.50;1.80;;;17.50;55.10;;;;;;5050782;28;20543;-74
2021/04/09 14:16:29;;;;;;;8.32;2.00;;;17.60;54.70;;;;;;5050273;28;20116;-74
2021/04/09 14:18:55;;;;;;;5.55;1.63;;;17.90;54.40;;;;;;5050871;28;20099;-74
2021/04/09 14:21:20;;;;;;;4.82;1.65;;;18.00;54.70;;;;;;5048591;28;20481;-74
2021/04/09 14:23:46;;;;;;;5.45;1.80;;;18.40;53.10;;;;;;5049431;28;20026;-73
2021/04/09 14:26:12;;;;;;;7.20;1.73;;;18.40;53.30;;;;;;5049205;28;20051;-74
2021/04/09 14:28:37;;;;;;;5.28;1.73;;;18.40;53.40;;;;;;5050515;28;20489;-73
2021/04/09 14:31:04;;;;;;;3.85;1.70;;;18.20;53.50;;;;;;5049810;28;20033;-74
2021/04/09 14:33:30;;;;;;;8.60;1.90;;;17.90;54.40;;;;;;5053478;28;20033;-74
2021/04/09 14:35:56;;;;;;;2.90;1.40;;;17.70;54.50;;;;;;5070314;28;20492;-74
2021/04/09 14:38:23;;;;;;;3.28;1.30;;;17.40;55.00;;;;;;5069241;28;20025;-74
2021/04/09 14:40:49;;;;;;;6.57;1.92;;;17.40;54.70;;;;;;5068507;28;20032;-74
2021/04/09 14:43:15;;;;;;;2.78;1.52;;;17.50;54.70;;;;;;5070065;28;20040;-74
2021/04/09 14:45:40;;;;;;;4.78;1.67;;;17.60;54.20;;;;;;5070034;28;20052;-74
2021/04/09 14:48:07;;;;;;;4.60;1.42;;;17.60;54.40;;;;;;5069941;28;20475;-74
2021/04/09 14:50:32;;;;;;;7.10;1.45;;;17.50;54.30;;;;;;5057774;28;20560;-74
2021/04/09 14:52:58;;;;;;;5.85;1.52;;;17.50;56.10;;;;;;5050132;28;20112;-74
2021/04/09 14:55:24;;;;;;;4.65;1.60;;;17.70;54.80;;;;;;5050184;28;20029;-74
2021/04/09 14:57:50;;;;;;;5.28;1.90;;;17.70;54.90;;;;;;5049879;28;20536;-73
2021/04/09 15:00:17;;;;;;;3.50;1.27;;;17.60;54.30;;;;;;5049370;28;20025;-73
2021/04/09 15:02:45;;;;;;;7.80;1.58;;;17.60;54.50;;;;;;5050147;28;20021;-74
2021/04/09 15:05:12;;;;;;;3.10;1.50;;;17.60;54.70;;;;;;5049939;28;20102;-74
2021/04/09 15:07:38;;;;;;;3.20;1.60;;;17.60;54.10;;;;;;5048103;28;20081;-74
2021/04/09 15:10:06;;;;;;;6.72;1.70;;;17.40;54.50;;;;;;5049058;28;20064;-74
2021/04/09 15:12:31;;;;;;;7.15;1.75;;;17.30;53.80;;;;;;5049805;28;20029;-74
2021/04/09 15:14:57;;;;;;;4.93;1.60;;;17.30;55.10;;;;;;5049675;28;20041;-74
2021/04/09 15:17:23;;;;;;;4.72;1.70;;;17.30;54.90;;;;;;5049362;28;20021;-74
2021/04/09 15:19:48;;;;;;;5.32;1.70;;;17.40;55.00;;;;;;5048694;28;20448;-74
2021/04/09 15:22:15;;;;;;;4.30;1.50;;;17.40;54.60;;;;;;5049277;28;20495;-74
2021/04/09 15:24:40;;;;;;;8.05;1.70;;;17.40;54.50;;;;;;5049702;28;20021;-73
2021/04/09 15:27:07;;;;;;;5.38;1.65;;;17.20;55.10;;;;;;5046163;28;20029;-74
2021/04/09 15:29:33;;;;;;;9.05;1.80;;;17.30;55.50;;;;;;5048380;28;20507;-74
2021/04/09 15:31:59;;;;;;;6.00;1.60;;;17.20;55.90;;;;;;5046742;28;20039;-73
2021/04/09 15:34:25;;;;;;;5.38;1.77;;;17.30;55.20;;;;;;5049554;28;20053;-74
2021/04/09 15:36:51;;;;;;;4.50;1.48;;;17.60;54.60;;;;;;5050746;28;20061;-73
2021/04/09 15:39:16;;;;;;;6.18;1.30;;;17.80;54.10;;;;;;5049209;28;20025;-74
2021/04/09 15:41:42;;;;;;;7.93;1.55;;;18.30;53.60;;;;;;5049189;28;20021;-74
2021/04/09 15:44:08;;;;;;;10.25;1.98;;;19.00;53.20;;;;;;5049402;28;20036;-74
2021/04/09 15:46:33;;;;;;;4.50;1.58;;;19.40;52.40;;;;;;5049448;28;20033;-73
2021/04/09 15:48:59;;;;;;;6.30;1.80;;;19.70;52.30;;;;;;5047945;28;20053;-73
2021/04/09 15:51:25;;;;;;;6.10;1.58;;;20.20;52.10;;;;;;5048959;28;20076;-73
2021/04/09 15:53:51;;;;;;;7.22;1.70;;;21.00;50.20;;;;;;5050124;28;20029;-73
2021/04/09 15:56:16;;;;;;;6.65;1.42;;;22.10;49.10;;;;;;5050213;28;20025;-74
2021/04/09 15:58:42;;;;;;;3.85;1.48;;;22.60;47.50;;;;;;5048887;28;20040;-75
2021/04/09 16:01:08;;;;;;;5.05;1.83;;;21.70;47.70;;;;;;5066349;28;20218;-74
2021/04/09 16:03:33;;;;;;;4.78;1.73;;;21.50;48.10;;;;;;5068862;28;20519;-74
2021/04/09 16:05:59;;;;;;;6.70;1.70;;;21.30;48.10;;;;;;5068931;28;20073;-74
2021/04/09 16:08:25;;;;;;;5.68;1.90;;;21.50;48.00;;;;;;5068915;28;20036;-74
2021/04/09 16:10:51;;;;;;;3.47;1.50;;;21.30;48.60;;;;;;5068504;28;20028;-74
2021/04/09 16:13:17;;;;;;;4.50;1.58;;;21.00;48.60;;;;;;5068904;28;20039;-74
2021/04/09 16:15:43;;;;;;;4.93;1.40;;;20.70;49.00;;;;;;5068869;28;20031;-74
2021/04/09 16:18:10;;;;;;;2.63;1.02;;;20.90;48.40;;;;;;5067156;28;20496;-74
2021/04/09 16:20:37;;;;;;;5.95;1.40;;;21.20;48.20;;;;;;5055951;28;20050;-73
2021/04/09 16:23:03;;;;;;;6.43;2.08;;;21.40;47.20;;;;;;5048633;28;20129;-74
2021/04/09 16:25:29;;;;;;;3.92;1.50;;;20.90;47.40;;;;;;5048693;28;20085;-74
2021/04/09 16:27:55;;;;;;;4.78;1.35;;;19.80;48.90;;;;;;5056669;28;20036;-74
2021/04/09 16:30:26;;;;;;;5.63;1.50;;;19.10;50.30;;;;;;5067902;28;20029;-74
2021/04/09 16:32:53;;;;;;;3.47;1.30;;;18.50;52.20;;;;;;5068101;28;20025;-73
2021/04/09 16:35:19;;;;;;;7.50;1.70;;;18.00;52.80;;;;;;5068670;28;20029;-73
2021/04/09 16:37:45;;;;;;;7.45;1.60;;;17.80;53.70;;;;;;5068486;28;20461;-73
2021/04/09 16:40:13;;;;;;;4.00;1.40;;;17.60;53.90;;;;;;5067746;28;20025;-74
2021/04/09 16:42:39;;;;;;;5.30;1.58;;;17.50;54.10;;;;;;5067457;27;20032;-74
2021/04/09 16:45:07;;;;;;;7.05;2.45;;;17.50;54.20;;;;;;5068341;28;20037;-74
2021/04/09 16:47:33;;;;;;;3.67;1.33;;;17.50;53.80;;;;;;5058939;28;20035;-74
2021/04/09 16:49:59;;;;;;;3.55;1.67;;;17.30;55.00;;;;;;5048372;28;20400;-74
2021/04/09 16:52:24;;;;;;;6.38;1.27;;;17.10;55.70;;;;;;5056985;28;20039;-74
2021/04/09 16:54:50;;;;;;;4.90;1.67;;;17.00;55.90;;;;;;5068279;28;20472;-74
2021/04/09 16:57:16;;;;;;;6.63;1.50;;;16.90;56.40;;;;;;5061123;28;20033;-75
2021/04/09 16:59:42;;;;;;;3.83;1.15;;;16.80;56.60;;;;;;5047836;28;20063;-74
2021/04/09 17:02:08;;;;;;;5.38;1.55;;;16.70;57.00;;;;;;5043027;28;20033;-74
2021/04/09 17:04:34;;;;;;;5.05;1.35;;;16.60;57.50;;;;;;5047785;28;20434;-78
2021/04/09 17:07:00;;;;;;;3.80;1.30;;;16.70;58.00;;;;;;5051945;28;20153;-77
2021/04/09 17:09:26;;;;;;;8.75;1.70;;;16.50;58.20;;;;;;5067160;28;20036;-76
2021/04/09 17:11:52;;;;;;;2.72;1.55;;;16.40;58.40;;;;;;5063605;28;20037;-76
2021/04/09 17:14:18;;;;;;;4.53;1.65;;;16.40;57.90;;;;;;5047697;28;20033;-76
2021/04/09 17:16:51;;;;;;;3.60;1.50;;;16.40;57.90;;;;;;5041233;28;20029;-76
2021/04/09 17:19:18;;;;;;;4.38;1.35;;;16.30;58.60;;;;;;5042174;28;20017;-77
2021/04/09 17:21:45;;;;;;;6.03;1.83;;;16.10;58.50;;;;;;5043595;28;20033;-77
2021/04/09 17:24:11;;;;;;;4.43;1.35;;;16.20;58.70;;;;;;5043217;28;20816;-77
2021/04/09 17:26:37;;;;;;;6.05;1.40;;;16.20;58.60;;;;;;5044641;28;20112;-78
2021/04/09 17:29:03;;;;;;;7.40;1.77;;;16.50;58.80;;;;;;5043486;28;20017;-75
2021/04/09 17:31:29;;;;;;;5.40;1.20;;;16.20;58.80;;;;;;5042539;28;20496;-76
2021/04/09 17:33:55;;;;;;;6.15;1.42;;;16.30;59.20;;;;;;5063251;28;20033;-76
2021/04/09 17:36:21;;;;;;;4.57;1.50;;;16.20;59.20;;;;;;5063025;27;20101;-76
2021/04/09 17:38:46;;;;;;;3.92;1.38;;;16.20;58.90;;;;;;5063242;28;20064;-76
2021/04/09 17:41:12;;;;;;;5.20;1.50;;;16.10;59.30;;;;;;5044896;28;20052;-77
2021/04/09 17:43:38;;;;;;;10.20;1.65;;;16.10;59.50;;;;;;5044490;28;20085;-76
2021/04/09 17:46:04;;;;;;;5.18;1.60;;;16.00;59.90;;;;;;5047444;27;20022;-74
2021/04/09 17:48:30;;;;;;;3.72;1.25;;;15.90;59.70;;;;;;5062174;28;20084;-77
2021/04/09 17:50:55;;;;;;;5.18;1.38;;;15.70;60.30;;;;;;5052432;28;20029;-80
2021/04/09 17:53:23;;;;;;;3.85;1.63;;;15.60;60.80;;;;;;5063990;28;20037;-77
2021/04/09 17:55:49;;;;;;;2.88;1.45;;;15.50;61.30;;;;;;5067172;28;20084;-79
2021/04/09 17:58:15;;;;;;;4.35;1.20;;;15.50;61.50;;;;;;5068052;28;20036;-77
2021/04/09 18:00:41;;;;;;;3.67;1.60;;;15.30;62.10;;;;;;5063369;28;20040;-76
2021/04/09 18:03:07;;;;;;;6.30;1.67;;;15.30;62.60;;;;;;5047696;28;20090;-76
2021/04/09 18:05:33;;;;;;;3.92;1.30;;;15.30;63.00;;;;;;5046970;28;20029;-77
2021/04/09 18:07:59;;;;;;;6.75;1.30;;;14.90;63.00;;;;;;5059471;28;20388;-77
2021/04/09 18:10:25;;;;;;;6.30;2.05;;;14.80;64.00;;;;;;5069196;28;20032;-75
2021/04/09 18:12:52;;;;;;;5.40;2.08;;;14.80;64.60;;;;;;5057327;28;20036;-75
2021/04/09 18:15:18;;;;;;;9.02;2.13;;;14.90;63.70;;;;;;5047503;28;20452;-76
2021/04/09 18:17:44;;;;;;;5.30;2.25;;;14.80;64.80;;;;;;5059522;28;20033;-76
2021/04/09 18:20:11;;;;;;;4.30;2.30;;;14.70;64.90;;;;;;5063936;28;20040;-76
2021/04/09 18:22:37;;;;;;;6.18;2.17;;;14.50;65.00;;;;;;5058828;28;20062;-76
2021/04/09 18:25:04;;;;;;;9.18;2.38;;;14.40;66.10;;;;;;5070846;28;20451;-76
2021/04/09 18:27:30;;;;;;;5.00;1.98;;;14.30;66.10;;;;;;5061833;28;20029;-77
2021/04/09 18:29:56;;;;;;;9.98;2.00;;;14.40;66.50;;;;;;5050202;28;20051;-76
2021/04/09 18:32:23;;;;;;;4.20;1.75;;;14.40;66.90;;;;;;5058563;28;20029;-79
2021/04/09 18:34:49;;;;;;;6.35;2.00;;;14.30;66.90;;;;;;5074253;28;20032;-82
2021/04/09 18:37:15;;;;;;;8.82;2.15;;;14.30;67.00;;;;;;5068098;28;20021;-75
2021/04/09 18:39:41;;;;;;;3.38;1.60;;;14.30;66.70;;;;;;5071412;28;20055;-76
2021/04/09 18:42:07;;;;;;;3.53;1.30;;;14.60;66.90;;;;;;5068206;28;20025;-79
2021/04/09 18:44:34;;;;;;;5.82;1.13;;;14.50;67.20;;;;;;5051258;28;20033;-77
2021/04/09 18:47:00;;;;;;;3.47;1.30;;;14.40;67.10;;;;;;5055206;28;20028;-77
2021/04/09 18:49:26;;;;;;;4.00;1.50;;;14.40;67.30;;;;;;5067785;28;20100;-79
2021/04/09 18:51:52;;;;;;;8.60;3.28;;;14.50;67.80;;;;;;5054055;28;20495;-76
2021/04/09 18:54:18;;;;;;;7.93;3.17;;;14.40;67.60;;;;;;5069651;28;20455;-78
